Smarr, Georgia
Current Conditions -  °F | °C
As of 11:55 AM on Tuesday 27 Jan 2015 (Local Time) from KOPN Reporting Station
Broken Clouds Broken Clouds  
Wind Chill: 52°   Ceiling: 4700
Heat Index: 52°   Visibility: 10mi
Dew Point: 36°   Wind: 10mph
Humidity: 54%   Direction: 360°N
Pressure: 29.96"   Gusts: 16mph
Location:  32.99°N, 83.88°W
Report Text: KOPN 271655Z AUTO 36009G14KT 320V030 10SM SCT039 BKN047 11/02 A2996 RMK AO2
Loading
Personal Weather Stations






























Interactive Weather Map New forecast layout! Learn more

10-Day Weather Forecast

Advertisements
Track Severe Weather on mobile